sensor_id;sensor_type;location;lat;lon;timestamp;P1;durP1;ratioP1;P2;durP2;ratioP2
11984;SDS011;6052;53.246;10.368;2022-10-17T00:01:03;0.45;;;0.45;;
11984;SDS011;6052;53.246;10.368;2022-10-17T00:03:31;0.52;;;0.52;;
11984;SDS011;6052;53.246;10.368;2022-10-17T00:06:03;0.50;;;0.50;;
11984;SDS011;6052;53.246;10.368;2022-10-17T00:08:31;0.40;;;0.40;;
11984;SDS011;6052;53.246;10.368;2022-10-17T00:10:59;0.68;;;0.47;;
11984;SDS011;6052;53.246;10.368;2022-10-17T00:13:29;0.50;;;0.50;;
11984;SDS011;6052;53.246;10.368;2022-10-17T00:16:00;0.52;;;0.52;;
11984;SDS011;6052;53.246;10.368;2022-10-17T00:18:28;0.47;;;0.47;;
11984;SDS011;6052;53.246;10.368;2022-10-17T00:20:55;0.32;;;0.32;;
11984;SDS011;6052;53.246;10.368;2022-10-17T00:23:23;0.50;;;0.35;;
11984;SDS011;6052;53.246;10.368;2022-10-17T00:25:59;0.35;;;0.35;;
11984;SDS011;6052;53.246;10.368;2022-10-17T00:28:27;0.38;;;0.38;;
11984;SDS011;6052;53.246;10.368;2022-10-17T00:30:56;0.30;;;0.30;;
11984;SDS011;6052;53.246;10.368;2022-10-17T00:33:25;0.73;;;0.60;;
11984;SDS011;6052;53.246;10.368;2022-10-17T00:36:00;0.38;;;0.38;;
11984;SDS011;6052;53.246;10.368;2022-10-17T00:38:30;0.20;;;0.20;;
11984;SDS011;6052;53.246;10.368;2022-10-17T00:40:58;0.40;;;0.40;;
11984;SDS011;6052;53.246;10.368;2022-10-17T00:43:26;0.73;;;0.63;;
11984;SDS011;6052;53.246;10.368;2022-10-17T00:45:58;0.57;;;0.57;;
11984;SDS011;6052;53.246;10.368;2022-10-17T00:48:29;0.47;;;0.47;;
11984;SDS011;6052;53.246;10.368;2022-10-17T00:50:57;0.52;;;0.43;;
11984;SDS011;6052;53.246;10.368;2022-10-17T00:53:28;0.22;;;0.22;;
11984;SDS011;6052;53.246;10.368;2022-10-17T00:55:56;0.40;;;0.40;;
11984;SDS011;6052;53.246;10.368;2022-10-17T00:58:27;0.32;;;0.32;;
11984;SDS011;6052;53.246;10.368;2022-10-17T01:00:55;0.30;;;0.30;;
11984;SDS011;6052;53.246;10.368;2022-10-17T01:03:22;0.40;;;0.40;;
11984;SDS011;6052;53.246;10.368;2022-10-17T01:05:51;0.50;;;0.50;;
11984;SDS011;6052;53.246;10.368;2022-10-17T01:08:19;0.40;;;0.40;;
11984;SDS011;6052;53.246;10.368;2022-10-17T01:10:49;0.30;;;0.30;;
11984;SDS011;6052;53.246;10.368;2022-10-17T01:13:22;0.47;;;0.47;;
11984;SDS011;6052;53.246;10.368;2022-10-17T01:15:55;0.22;;;0.22;;
11984;SDS011;6052;53.246;10.368;2022-10-17T01:18:31;0.40;;;0.40;;
11984;SDS011;6052;53.246;10.368;2022-10-17T01:24:13;0.28;;;0.28;;
11984;SDS011;6052;53.246;10.368;2022-10-17T01:26:57;0.22;;;0.22;;
11984;SDS011;6052;53.246;10.368;2022-10-17T01:29:40;0.28;;;0.28;;
11984;SDS011;6052;53.246;10.368;2022-10-17T01:32:16;0.40;;;0.40;;
11984;SDS011;6052;53.246;10.368;2022-10-17T01:34:46;0.28;;;0.28;;
11984;SDS011;6052;53.246;10.368;2022-10-17T01:37:22;0.30;;;0.30;;
11984;SDS011;6052;53.246;10.368;2022-10-17T01:39:55;0.40;;;0.40;;
11984;SDS011;6052;53.246;10.368;2022-10-17T01:42:29;0.30;;;0.30;;
11984;SDS011;6052;53.246;10.368;2022-10-17T01:45:02;0.40;;;0.40;;
11984;SDS011;6052;53.246;10.368;2022-10-17T01:47:35;0.40;;;0.40;;
11984;SDS011;6052;53.246;10.368;2022-10-17T01:50:05;0.22;;;0.22;;
11984;SDS011;6052;53.246;10.368;2022-10-17T01:52:37;0.40;;;0.40;;
11984;SDS011;6052;53.246;10.368;2022-10-17T01:55:11;0.40;;;0.40;;
11984;SDS011;6052;53.246;10.368;2022-10-17T01:57:42;0.38;;;0.30;;
11984;SDS011;6052;53.246;10.368;2022-10-17T02:00:13;0.30;;;0.30;;
11984;SDS011;6052;53.246;10.368;2022-10-17T02:02:45;0.40;;;0.40;;
11984;SDS011;6052;53.246;10.368;2022-10-17T02:05:15;0.22;;;0.22;;
11984;SDS011;6052;53.246;10.368;2022-10-17T02:07:43;1.33;;;0.98;;
11984;SDS011;6052;53.246;10.368;2022-10-17T02:10:14;0.32;;;0.32;;
11984;SDS011;6052;53.246;10.368;2022-10-17T02:12:58;0.35;;;0.35;;
11984;SDS011;6052;53.246;10.368;2022-10-17T02:15:43;0.52;;;0.40;;
11984;SDS011;6052;53.246;10.368;2022-10-17T02:18:25;0.25;;;0.25;;
11984;SDS011;6052;53.246;10.368;2022-10-17T02:21:02;0.10;;;0.10;;
11984;SDS011;6052;53.246;10.368;2022-10-17T02:23:34;0.32;;;0.32;;
11984;SDS011;6052;53.246;10.368;2022-10-17T02:26:05;0.20;;;0.20;;
11984;SDS011;6052;53.246;10.368;2022-10-17T02:28:37;0.20;;;0.20;;
11984;SDS011;6052;53.246;10.368;2022-10-17T02:31:09;0.32;;;0.32;;
11984;SDS011;6052;53.246;10.368;2022-10-17T02:33:43;0.20;;;0.20;;
11984;SDS011;6052;53.246;10.368;2022-10-17T02:36:14;0.20;;;0.20;;
11984;SDS011;6052;53.246;10.368;2022-10-17T02:38:45;0.40;;;0.40;;
11984;SDS011;6052;53.246;10.368;2022-10-17T02:41:14;0.28;;;0.25;;
11984;SDS011;6052;53.246;10.368;2022-10-17T02:43:44;0.32;;;0.32;;
11984;SDS011;6052;53.246;10.368;2022-10-17T02:46:13;0.30;;;0.30;;
11984;SDS011;6052;53.246;10.368;2022-10-17T02:48:47;0.40;;;0.40;;
11984;SDS011;6052;53.246;10.368;2022-10-17T02:51:19;0.40;;;0.38;;
11984;SDS011;6052;53.246;10.368;2022-10-17T02:53:55;0.20;;;0.20;;
11984;SDS011;6052;53.246;10.368;2022-10-17T02:56:25;0.30;;;0.30;;
11984;SDS011;6052;53.246;10.368;2022-10-17T02:58:54;0.28;;;0.28;;
11984;SDS011;6052;53.246;10.368;2022-10-17T03:01:24;0.30;;;0.30;;
11984;SDS011;6052;53.246;10.368;2022-10-17T03:04:04;0.22;;;0.22;;
11984;SDS011;6052;53.246;10.368;2022-10-17T03:06:32;0.30;;;0.30;;
11984;SDS011;6052;53.246;10.368;2022-10-17T03:09:00;0.50;;;0.40;;
11984;SDS011;6052;53.246;10.368;2022-10-17T03:11:29;0.20;;;0.20;;
11984;SDS011;6052;53.246;10.368;2022-10-17T03:13:57;0.40;;;0.28;;
11984;SDS011;6052;53.246;10.368;2022-10-17T03:16:24;0.28;;;0.28;;
11984;SDS011;6052;53.246;10.368;2022-10-17T03:18:52;0.25;;;0.25;;
11984;SDS011;6052;53.246;10.368;2022-10-17T03:21:21;0.38;;;0.38;;
11984;SDS011;6052;53.246;10.368;2022-10-17T03:23:49;0.30;;;0.30;;
11984;SDS011;6052;53.246;10.368;2022-10-17T03:26:17;0.25;;;0.25;;
11984;SDS011;6052;53.246;10.368;2022-10-17T03:28:44;0.30;;;0.30;;
11984;SDS011;6052;53.246;10.368;2022-10-17T03:31:17;0.30;;;0.30;;
11984;SDS011;6052;53.246;10.368;2022-10-17T03:33:45;0.30;;;0.30;;
11984;SDS011;6052;53.246;10.368;2022-10-17T03:36:13;0.50;;;0.50;;
11984;SDS011;6052;53.246;10.368;2022-10-17T03:38:44;0.28;;;0.28;;
11984;SDS011;6052;53.246;10.368;2022-10-17T03:41:12;0.20;;;0.20;;
11984;SDS011;6052;53.246;10.368;2022-10-17T03:43:40;0.45;;;0.45;;
11984;SDS011;6052;53.246;10.368;2022-10-17T03:46:08;0.35;;;0.35;;
11984;SDS011;6052;53.246;10.368;2022-10-17T03:48:35;0.30;;;0.30;;
11984;SDS011;6052;53.246;10.368;2022-10-17T03:51:04;0.05;;;0.03;;
11984;SDS011;6052;53.246;10.368;2022-10-17T03:53:33;0.13;;;0.13;;
11984;SDS011;6052;53.246;10.368;2022-10-17T03:56:09;0.43;;;0.40;;
11984;SDS011;6052;53.246;10.368;2022-10-17T03:58:37;0.40;;;0.40;;
11984;SDS011;6052;53.246;10.368;2022-10-17T04:01:06;0.30;;;0.30;;
11984;SDS011;6052;53.246;10.368;2022-10-17T04:03:34;0.22;;;0.20;;
11984;SDS011;6052;53.246;10.368;2022-10-17T04:06:02;0.20;;;0.20;;
11984;SDS011;6052;53.246;10.368;2022-10-17T04:08:31;0.30;;;0.30;;
11984;SDS011;6052;53.246;10.368;2022-10-17T04:10:59;0.22;;;0.22;;
11984;SDS011;6052;53.246;10.368;2022-10-17T04:13:29;0.20;;;0.20;;
11984;SDS011;6052;53.246;10.368;2022-10-17T04:15:57;0.17;;;0.17;;
11984;SDS011;6052;53.246;10.368;2022-10-17T04:18:27;0.30;;;0.28;;
11984;SDS011;6052;53.246;10.368;2022-10-17T04:20:55;0.15;;;0.15;;
11984;SDS011;6052;53.246;10.368;2022-10-17T04:23:23;0.65;;;0.35;;
11984;SDS011;6052;53.246;10.368;2022-10-17T04:25:54;0.20;;;0.20;;
11984;SDS011;6052;53.246;10.368;2022-10-17T04:28:22;0.90;;;0.28;;
11984;SDS011;6052;53.246;10.368;2022-10-17T04:30:55;0.17;;;0.17;;
11984;SDS011;6052;53.246;10.368;2022-10-17T04:33:23;0.20;;;0.20;;
11984;SDS011;6052;53.246;10.368;2022-10-17T04:35:55;0.13;;;0.13;;
11984;SDS011;6052;53.246;10.368;2022-10-17T04:38:23;0.20;;;0.20;;
11984;SDS011;6052;53.246;10.368;2022-10-17T04:40:55;0.20;;;0.17;;
11984;SDS011;6052;53.246;10.368;2022-10-17T04:43:23;0.20;;;0.20;;
11984;SDS011;6052;53.246;10.368;2022-10-17T04:45:51;0.30;;;0.30;;
11984;SDS011;6052;53.246;10.368;2022-10-17T04:48:20;0.70;;;0.60;;
11984;SDS011;6052;53.246;10.368;2022-10-17T04:50:54;0.20;;;0.20;;
11984;SDS011;6052;53.246;10.368;2022-10-17T04:53:22;0.30;;;0.30;;
11984;SDS011;6052;53.246;10.368;2022-10-17T04:55:50;0.30;;;0.30;;
11984;SDS011;6052;53.246;10.368;2022-10-17T04:58:18;0.15;;;0.15;;
11984;SDS011;6052;53.246;10.368;2022-10-17T05:00:46;0.20;;;0.17;;
11984;SDS011;6052;53.246;10.368;2022-10-17T05:03:14;0.10;;;0.10;;
11984;SDS011;6052;53.246;10.368;2022-10-17T05:05:43;0.20;;;0.20;;
11984;SDS011;6052;53.246;10.368;2022-10-17T05:08:11;0.13;;;0.13;;
11984;SDS011;6052;53.246;10.368;2022-10-17T05:10:40;0.13;;;0.13;;
11984;SDS011;6052;53.246;10.368;2022-10-17T05:13:08;0.05;;;0.05;;
11984;SDS011;6052;53.246;10.368;2022-10-17T05:15:37;0.15;;;0.15;;
11984;SDS011;6052;53.246;10.368;2022-10-17T05:18:05;0.20;;;0.20;;
11984;SDS011;6052;53.246;10.368;2022-10-17T05:20:33;0.20;;;0.20;;
11984;SDS011;6052;53.246;10.368;2022-10-17T05:23:02;0.20;;;0.20;;
11984;SDS011;6052;53.246;10.368;2022-10-17T05:25:29;0.13;;;0.13;;
11984;SDS011;6052;53.246;10.368;2022-10-17T05:27:57;0.52;;;0.20;;
11984;SDS011;6052;53.246;10.368;2022-10-17T05:30:25;1.13;;;0.32;;
11984;SDS011;6052;53.246;10.368;2022-10-17T05:32:53;1.40;;;0.55;;
11984;SDS011;6052;53.246;10.368;2022-10-17T05:35:21;0.28;;;0.28;;
11984;SDS011;6052;53.246;10.368;2022-10-17T05:37:49;0.20;;;0.20;;
11984;SDS011;6052;53.246;10.368;2022-10-17T05:40:18;0.45;;;0.30;;
11984;SDS011;6052;53.246;10.368;2022-10-17T05:42:46;0.25;;;0.25;;
11984;SDS011;6052;53.246;10.368;2022-10-17T05:45:14;0.20;;;0.20;;
11984;SDS011;6052;53.246;10.368;2022-10-17T05:47:42;0.50;;;0.47;;
11984;SDS011;6052;53.246;10.368;2022-10-17T05:50:10;0.20;;;0.20;;
11984;SDS011;6052;53.246;10.368;2022-10-17T05:52:37;0.25;;;0.25;;
11984;SDS011;6052;53.246;10.368;2022-10-17T05:55:09;0.20;;;0.20;;
11984;SDS011;6052;53.246;10.368;2022-10-17T05:57:38;0.20;;;0.20;;
11984;SDS011;6052;53.246;10.368;2022-10-17T06:00:06;0.20;;;0.20;;
11984;SDS011;6052;53.246;10.368;2022-10-17T06:02:35;0.25;;;0.25;;
11984;SDS011;6052;53.246;10.368;2022-10-17T06:05:02;0.30;;;0.30;;
11984;SDS011;6052;53.246;10.368;2022-10-17T06:07:30;0.25;;;0.25;;
11984;SDS011;6052;53.246;10.368;2022-10-17T06:09:58;0.08;;;0.08;;
11984;SDS011;6052;53.246;10.368;2022-10-17T06:12:28;0.70;;;0.40;;
11984;SDS011;6052;53.246;10.368;2022-10-17T06:14:57;0.20;;;0.20;;
11984;SDS011;6052;53.246;10.368;2022-10-17T06:17:27;0.30;;;0.30;;
11984;SDS011;6052;53.246;10.368;2022-10-17T06:19:55;0.20;;;0.20;;
11984;SDS011;6052;53.246;10.368;2022-10-17T06:22:23;0.30;;;0.30;;
11984;SDS011;6052;53.246;10.368;2022-10-17T06:24:51;0.13;;;0.13;;
11984;SDS011;6052;53.246;10.368;2022-10-17T06:27:19;0.30;;;0.30;;
11984;SDS011;6052;53.246;10.368;2022-10-17T06:29:47;0.40;;;0.40;;
11984;SDS011;6052;53.246;10.368;2022-10-17T06:32:17;0.38;;;0.35;;
11984;SDS011;6052;53.246;10.368;2022-10-17T06:34:45;0.35;;;0.35;;
11984;SDS011;6052;53.246;10.368;2022-10-17T06:37:13;0.30;;;0.30;;
11984;SDS011;6052;53.246;10.368;2022-10-17T06:39:40;0.20;;;0.20;;
11984;SDS011;6052;53.246;10.368;2022-10-17T06:42:08;0.20;;;0.20;;
11984;SDS011;6052;53.246;10.368;2022-10-17T06:44:36;0.30;;;0.30;;
11984;SDS011;6052;53.246;10.368;2022-10-17T06:47:05;0.30;;;0.30;;
11984;SDS011;6052;53.246;10.368;2022-10-17T06:49:34;0.30;;;0.30;;
11984;SDS011;6052;53.246;10.368;2022-10-17T06:52:02;0.30;;;0.30;;
11984;SDS011;6052;53.246;10.368;2022-10-17T06:54:29;0.35;;;0.35;;
11984;SDS011;6052;53.246;10.368;2022-10-17T06:56:57;0.38;;;0.28;;
11984;SDS011;6052;53.246;10.368;2022-10-17T06:59:28;0.25;;;0.25;;
11984;SDS011;6052;53.246;10.368;2022-10-17T07:01:55;0.30;;;0.30;;
11984;SDS011;6052;53.246;10.368;2022-10-17T07:04:23;0.30;;;0.30;;
11984;SDS011;6052;53.246;10.368;2022-10-17T07:06:52;0.30;;;0.20;;
11984;SDS011;6052;53.246;10.368;2022-10-17T07:09:20;0.30;;;0.30;;
11984;SDS011;6052;53.246;10.368;2022-10-17T07:11:49;0.20;;;0.20;;
11984;SDS011;6052;53.246;10.368;2022-10-17T07:14:17;0.22;;;0.22;;
11984;SDS011;6052;53.246;10.368;2022-10-17T07:16:46;0.30;;;0.30;;
11984;SDS011;6052;53.246;10.368;2022-10-17T07:19:15;0.30;;;0.30;;
11984;SDS011;6052;53.246;10.368;2022-10-17T07:21:42;0.50;;;0.50;;
11984;SDS011;6052;53.246;10.368;2022-10-17T07:24:11;0.32;;;0.32;;
11984;SDS011;6052;53.246;10.368;2022-10-17T07:26:39;0.22;;;0.20;;
11984;SDS011;6052;53.246;10.368;2022-10-17T07:29:08;0.30;;;0.30;;
11984;SDS011;6052;53.246;10.368;2022-10-17T07:31:36;0.22;;;0.20;;
11984;SDS011;6052;53.246;10.368;2022-10-17T07:34:04;0.73;;;0.52;;
11984;SDS011;6052;53.246;10.368;2022-10-17T07:36:31;0.30;;;0.30;;
11984;SDS011;6052;53.246;10.368;2022-10-17T07:38:59;0.20;;;0.20;;
11984;SDS011;6052;53.246;10.368;2022-10-17T07:41:29;0.82;;;0.32;;
11984;SDS011;6052;53.246;10.368;2022-10-17T07:43:56;0.52;;;0.47;;
11984;SDS011;6052;53.246;10.368;2022-10-17T07:46:24;0.30;;;0.30;;
11984;SDS011;6052;53.246;10.368;2022-10-17T07:48:52;0.20;;;0.20;;
11984;SDS011;6052;53.246;10.368;2022-10-17T07:51:20;0.30;;;0.30;;
11984;SDS011;6052;53.246;10.368;2022-10-17T07:53:48;0.20;;;0.20;;
11984;SDS011;6052;53.246;10.368;2022-10-17T07:56:15;1.10;;;0.40;;
11984;SDS011;6052;53.246;10.368;2022-10-17T07:58:45;0.20;;;0.20;;
11984;SDS011;6052;53.246;10.368;2022-10-17T08:01:13;0.63;;;0.40;;
11984;SDS011;6052;53.246;10.368;2022-10-17T08:03:42;0.30;;;0.30;;
11984;SDS011;6052;53.246;10.368;2022-10-17T08:06:10;0.38;;;0.38;;
11984;SDS011;6052;53.246;10.368;2022-10-17T08:08:38;0.30;;;0.30;;
11984;SDS011;6052;53.246;10.368;2022-10-17T08:11:06;0.20;;;0.20;;
11984;SDS011;6052;53.246;10.368;2022-10-17T08:13:36;0.47;;;0.47;;
11984;SDS011;6052;53.246;10.368;2022-10-17T08:16:06;0.30;;;0.30;;
11984;SDS011;6052;53.246;10.368;2022-10-17T08:18:35;0.15;;;0.15;;
11984;SDS011;6052;53.246;10.368;2022-10-17T08:21:03;0.40;;;0.40;;
11984;SDS011;6052;53.246;10.368;2022-10-17T08:23:33;0.47;;;0.30;;
11984;SDS011;6052;53.246;10.368;2022-10-17T08:26:02;0.30;;;0.30;;
11984;SDS011;6052;53.246;10.368;2022-10-17T08:28:33;0.28;;;0.20;;
11984;SDS011;6052;53.246;10.368;2022-10-17T08:31:02;0.45;;;0.40;;
11984;SDS011;6052;53.246;10.368;2022-10-17T08:33:31;0.50;;;0.20;;
11984;SDS011;6052;53.246;10.368;2022-10-17T08:35:59;0.20;;;0.20;;
11984;SDS011;6052;53.246;10.368;2022-10-17T08:38:28;0.10;;;0.10;;
11984;SDS011;6052;53.246;10.368;2022-10-17T08:41:01;0.30;;;0.30;;
11984;SDS011;6052;53.246;10.368;2022-10-17T08:43:36;0.47;;;0.47;;
11984;SDS011;6052;53.246;10.368;2022-10-17T08:46:10;0.20;;;0.20;;
11984;SDS011;6052;53.246;10.368;2022-10-17T08:48:45;0.52;;;0.40;;
11984;SDS011;6052;53.246;10.368;2022-10-17T08:51:15;0.30;;;0.30;;
11984;SDS011;6052;53.246;10.368;2022-10-17T08:53:46;0.70;;;0.32;;
11984;SDS011;6052;53.246;10.368;2022-10-17T08:56:17;0.25;;;0.25;;
11984;SDS011;6052;53.246;10.368;2022-10-17T08:59:09;0.35;;;0.30;;
11984;SDS011;6052;53.246;10.368;2022-10-17T09:01:39;0.15;;;0.15;;
11984;SDS011;6052;53.246;10.368;2022-10-17T09:04:17;0.35;;;0.35;;
11984;SDS011;6052;53.246;10.368;2022-10-17T09:06:59;0.30;;;0.30;;
11984;SDS011;6052;53.246;10.368;2022-10-17T09:09:33;0.30;;;0.25;;
11984;SDS011;6052;53.246;10.368;2022-10-17T09:12:12;0.32;;;0.32;;
11984;SDS011;6052;53.246;10.368;2022-10-17T09:14:46;0.20;;;0.20;;
11984;SDS011;6052;53.246;10.368;2022-10-17T09:17:23;0.30;;;0.30;;
11984;SDS011;6052;53.246;10.368;2022-10-17T09:20:00;0.40;;;0.40;;
11984;SDS011;6052;53.246;10.368;2022-10-17T09:22:32;0.40;;;0.40;;
11984;SDS011;6052;53.246;10.368;2022-10-17T09:25:03;0.30;;;0.30;;
11984;SDS011;6052;53.246;10.368;2022-10-17T09:27:33;0.35;;;0.35;;
11984;SDS011;6052;53.246;10.368;2022-10-17T09:30:13;0.40;;;0.40;;
11984;SDS011;6052;53.246;10.368;2022-10-17T09:33:13;0.28;;;0.22;;
11984;SDS011;6052;53.246;10.368;2022-10-17T09:36:03;0.20;;;0.20;;
11984;SDS011;6052;53.246;10.368;2022-10-17T09:38:37;0.68;;;0.40;;
11984;SDS011;6052;53.246;10.368;2022-10-17T09:41:10;0.38;;;0.38;;
11984;SDS011;6052;53.246;10.368;2022-10-17T09:44:08;0.30;;;0.30;;
11984;SDS011;6052;53.246;10.368;2022-10-17T09:46:40;0.70;;;0.60;;
11984;SDS011;6052;53.246;10.368;2022-10-17T09:49:11;0.47;;;0.45;;
11984;SDS011;6052;53.246;10.368;2022-10-17T09:51:44;1.02;;;0.88;;
11984;SDS011;6052;53.246;10.368;2022-10-17T09:54:15;0.40;;;0.40;;
11984;SDS011;6052;53.246;10.368;2022-10-17T09:56:55;0.40;;;0.40;;
11984;SDS011;6052;53.246;10.368;2022-10-17T09:59:28;0.73;;;0.73;;
11984;SDS011;6052;53.246;10.368;2022-10-17T10:02:06;4.38;;;0.60;;
11984;SDS011;6052;53.246;10.368;2022-10-17T10:04:35;0.38;;;0.30;;
11984;SDS011;6052;53.246;10.368;2022-10-17T10:07:25;0.50;;;0.50;;
11984;SDS011;6052;53.246;10.368;2022-10-17T10:09:55;2.95;;;0.77;;
11984;SDS011;6052;53.246;10.368;2022-10-17T10:12:24;0.25;;;0.20;;
11984;SDS011;6052;53.246;10.368;2022-10-17T10:14:52;0.30;;;0.30;;
11984;SDS011;6052;53.246;10.368;2022-10-17T10:17:28;0.40;;;0.40;;
11984;SDS011;6052;53.246;10.368;2022-10-17T10:20:01;0.32;;;0.32;;
11984;SDS011;6052;53.246;10.368;2022-10-17T10:22:31;0.63;;;0.38;;
11984;SDS011;6052;53.246;10.368;2022-10-17T10:25:06;0.28;;;0.28;;
11984;SDS011;6052;53.246;10.368;2022-10-17T10:27:34;0.60;;;0.30;;
11984;SDS011;6052;53.246;10.368;2022-10-17T10:30:03;0.47;;;0.47;;
11984;SDS011;6052;53.246;10.368;2022-10-17T10:32:31;0.73;;;0.50;;
11984;SDS011;6052;53.246;10.368;2022-10-17T10:35:02;0.80;;;0.60;;
11984;SDS011;6052;53.246;10.368;2022-10-17T10:37:34;1.85;;;0.68;;
11984;SDS011;6052;53.246;10.368;2022-10-17T10:40:05;0.38;;;0.30;;
11984;SDS011;6052;53.246;10.368;2022-10-17T10:42:34;0.30;;;0.30;;
11984;SDS011;6052;53.246;10.368;2022-10-17T10:45:13;0.40;;;0.40;;
11984;SDS011;6052;53.246;10.368;2022-10-17T10:48:05;0.60;;;0.45;;
11984;SDS011;6052;53.246;10.368;2022-10-17T10:50:44;0.32;;;0.32;;
11984;SDS011;6052;53.246;10.368;2022-10-17T10:53:23;0.80;;;0.55;;
11984;SDS011;6052;53.246;10.368;2022-10-17T10:56:02;0.20;;;0.20;;
11984;SDS011;6052;53.246;10.368;2022-10-17T10:58:33;1.85;;;0.50;;
11984;SDS011;6052;53.246;10.368;2022-10-17T11:01:11;0.60;;;0.40;;
11984;SDS011;6052;53.246;10.368;2022-10-17T11:03:46;1.50;;;0.43;;
11984;SDS011;6052;53.246;10.368;2022-10-17T11:06:21;0.50;;;0.50;;
11984;SDS011;6052;53.246;10.368;2022-10-17T11:08:56;0.90;;;0.60;;
11984;SDS011;6052;53.246;10.368;2022-10-17T11:11:32;0.57;;;0.57;;
11984;SDS011;6052;53.246;10.368;2022-10-17T11:14:06;0.50;;;0.50;;
11984;SDS011;6052;53.246;10.368;2022-10-17T11:16:40;0.50;;;0.50;;
11984;SDS011;6052;53.246;10.368;2022-10-17T11:19:12;0.40;;;0.40;;
11984;SDS011;6052;53.246;10.368;2022-10-17T11:21:45;0.40;;;0.40;;
11984;SDS011;6052;53.246;10.368;2022-10-17T11:24:17;0.70;;;0.60;;
11984;SDS011;6052;53.246;10.368;2022-10-17T11:26:49;0.77;;;0.50;;
11984;SDS011;6052;53.246;10.368;2022-10-17T11:29:21;0.30;;;0.30;;
11984;SDS011;6052;53.246;10.368;2022-10-17T11:31:52;0.15;;;0.15;;
11984;SDS011;6052;53.246;10.368;2022-10-17T11:34:22;0.40;;;0.40;;
11984;SDS011;6052;53.246;10.368;2022-10-17T11:36:54;0.38;;;0.38;;
11984;SDS011;6052;53.246;10.368;2022-10-17T11:39:28;0.52;;;0.35;;
11984;SDS011;6052;53.246;10.368;2022-10-17T11:41:58;0.50;;;0.50;;
11984;SDS011;6052;53.246;10.368;2022-10-17T11:44:30;0.35;;;0.35;;
11984;SDS011;6052;53.246;10.368;2022-10-17T11:47:02;0.47;;;0.38;;
11984;SDS011;6052;53.246;10.368;2022-10-17T11:49:33;0.40;;;0.40;;
11984;SDS011;6052;53.246;10.368;2022-10-17T11:52:10;0.90;;;0.60;;
11984;SDS011;6052;53.246;10.368;2022-10-17T11:55:10;0.30;;;0.30;;
11984;SDS011;6052;53.246;10.368;2022-10-17T11:57:43;0.40;;;0.40;;
11984;SDS011;6052;53.246;10.368;2022-10-17T12:03:18;0.20;;;0.20;;
11984;SDS011;6052;53.246;10.368;2022-10-17T12:05:54;0.52;;;0.50;;
11984;SDS011;6052;53.246;10.368;2022-10-17T12:08:24;0.55;;;0.55;;
11984;SDS011;6052;53.246;10.368;2022-10-17T12:10:59;0.55;;;0.38;;
11984;SDS011;6052;53.246;10.368;2022-10-17T12:19:19;0.70;;;0.47;;
11984;SDS011;6052;53.246;10.368;2022-10-17T12:21:56;0.50;;;0.40;;
11984;SDS011;6052;53.246;10.368;2022-10-17T12:24:31;0.65;;;0.65;;
11984;SDS011;6052;53.246;10.368;2022-10-17T12:29:49;0.47;;;0.47;;
11984;SDS011;6052;53.246;10.368;2022-10-17T12:32:25;0.60;;;0.50;;
11984;SDS011;6052;53.246;10.368;2022-10-17T12:35:02;0.50;;;0.50;;
11984;SDS011;6052;53.246;10.368;2022-10-17T12:41:02;0.50;;;0.50;;
11984;SDS011;6052;53.246;10.368;2022-10-17T12:43:44;0.40;;;0.40;;
11984;SDS011;6052;53.246;10.368;2022-10-17T12:49:19;0.52;;;0.47;;
11984;SDS011;6052;53.246;10.368;2022-10-17T12:52:12;0.55;;;0.50;;
11984;SDS011;6052;53.246;10.368;2022-10-17T12:54:43;0.40;;;0.40;;
11984;SDS011;6052;53.246;10.368;2022-10-17T12:57:33;0.85;;;0.68;;
11984;SDS011;6052;53.246;10.368;2022-10-17T13:00:11;0.80;;;0.70;;
11984;SDS011;6052;53.246;10.368;2022-10-17T13:02:42;0.45;;;0.45;;
11984;SDS011;6052;53.246;10.368;2022-10-17T13:05:12;0.60;;;0.60;;
11984;SDS011;6052;53.246;10.368;2022-10-17T13:07:43;1.27;;;0.63;;
11984;SDS011;6052;53.246;10.368;2022-10-17T13:10:21;0.60;;;0.60;;
11984;SDS011;6052;53.246;10.368;2022-10-17T13:12:58;0.50;;;0.50;;
11984;SDS011;6052;53.246;10.368;2022-10-17T13:15:32;0.35;;;0.35;;
11984;SDS011;6052;53.246;10.368;2022-10-17T13:18:00;0.60;;;0.60;;
11984;SDS011;6052;53.246;10.368;2022-10-17T13:20:28;0.50;;;0.40;;
11984;SDS011;6052;53.246;10.368;2022-10-17T13:22:57;0.50;;;0.50;;
11984;SDS011;6052;53.246;10.368;2022-10-17T13:25:26;0.93;;;0.70;;
11984;SDS011;6052;53.246;10.368;2022-10-17T13:28:05;1.02;;;0.75;;
11984;SDS011;6052;53.246;10.368;2022-10-17T13:30:35;0.30;;;0.30;;
11984;SDS011;6052;53.246;10.368;2022-10-17T13:33:13;0.75;;;0.63;;
11984;SDS011;6052;53.246;10.368;2022-10-17T13:35:45;0.47;;;0.47;;
11984;SDS011;6052;53.246;10.368;2022-10-17T13:38:27;0.50;;;0.50;;
11984;SDS011;6052;53.246;10.368;2022-10-17T13:40:57;0.50;;;0.50;;
11984;SDS011;6052;53.246;10.368;2022-10-17T13:43:45;0.40;;;0.40;;
11984;SDS011;6052;53.246;10.368;2022-10-17T13:46:16;0.50;;;0.50;;
11984;SDS011;6052;53.246;10.368;2022-10-17T13:49:08;0.80;;;0.47;;
11984;SDS011;6052;53.246;10.368;2022-10-17T13:51:40;0.68;;;0.68;;
11984;SDS011;6052;53.246;10.368;2022-10-17T13:54:16;0.60;;;0.60;;
11984;SDS011;6052;53.246;10.368;2022-10-17T13:57:02;0.82;;;0.75;;
11984;SDS011;6052;53.246;10.368;2022-10-17T13:59:31;0.43;;;0.43;;
11984;SDS011;6052;53.246;10.368;2022-10-17T14:02:04;0.70;;;0.65;;
11984;SDS011;6052;53.246;10.368;2022-10-17T14:04:37;0.95;;;0.80;;
11984;SDS011;6052;53.246;10.368;2022-10-17T14:07:27;0.73;;;0.73;;
11984;SDS011;6052;53.246;10.368;2022-10-17T14:10:18;1.00;;;0.95;;
11984;SDS011;6052;53.246;10.368;2022-10-17T14:12:46;0.73;;;0.65;;
11984;SDS011;6052;53.246;10.368;2022-10-17T14:15:16;0.90;;;0.70;;
11984;SDS011;6052;53.246;10.368;2022-10-17T14:17:52;1.00;;;0.82;;
11984;SDS011;6052;53.246;10.368;2022-10-17T14:20:20;0.50;;;0.50;;
11984;SDS011;6052;53.246;10.368;2022-10-17T14:26:13;0.75;;;0.70;;
11984;SDS011;6052;53.246;10.368;2022-10-17T14:28:43;0.68;;;0.68;;
11984;SDS011;6052;53.246;10.368;2022-10-17T14:31:22;0.77;;;0.75;;
11984;SDS011;6052;53.246;10.368;2022-10-17T14:33:53;1.17;;;0.80;;
11984;SDS011;6052;53.246;10.368;2022-10-17T14:36:36;0.95;;;0.85;;
11984;SDS011;6052;53.246;10.368;2022-10-17T14:39:07;0.75;;;0.75;;
11984;SDS011;6052;53.246;10.368;2022-10-17T14:41:45;1.00;;;0.80;;
11984;SDS011;6052;53.246;10.368;2022-10-17T14:44:14;0.77;;;0.77;;
11984;SDS011;6052;53.246;10.368;2022-10-17T14:46:46;1.02;;;0.93;;
11984;SDS011;6052;53.246;10.368;2022-10-17T14:49:18;0.63;;;0.63;;
11984;SDS011;6052;53.246;10.368;2022-10-17T14:52:11;1.05;;;0.93;;
11984;SDS011;6052;53.246;10.368;2022-10-17T14:54:50;0.75;;;0.70;;
11984;SDS011;6052;53.246;10.368;2022-10-17T14:57:20;0.85;;;0.80;;
11984;SDS011;6052;53.246;10.368;2022-10-17T14:59:50;0.70;;;0.70;;
11984;SDS011;6052;53.246;10.368;2022-10-17T15:02:21;1.35;;;0.85;;
11984;SDS011;6052;53.246;10.368;2022-10-17T15:04:50;0.70;;;0.70;;
11984;SDS011;6052;53.246;10.368;2022-10-17T15:07:18;0.60;;;0.60;;
11984;SDS011;6052;53.246;10.368;2022-10-17T15:09:48;0.70;;;0.70;;
11984;SDS011;6052;53.246;10.368;2022-10-17T15:12:17;0.93;;;0.63;;
11984;SDS011;6052;53.246;10.368;2022-10-17T15:14:46;1.05;;;0.85;;
11984;SDS011;6052;53.246;10.368;2022-10-17T15:17:16;0.77;;;0.77;;
11984;SDS011;6052;53.246;10.368;2022-10-17T15:19:46;0.50;;;0.50;;
11984;SDS011;6052;53.246;10.368;2022-10-17T15:22:15;1.13;;;0.60;;
11984;SDS011;6052;53.246;10.368;2022-10-17T15:24:43;0.75;;;0.65;;
11984;SDS011;6052;53.246;10.368;2022-10-17T15:27:13;0.75;;;0.60;;
11984;SDS011;6052;53.246;10.368;2022-10-17T15:29:42;0.80;;;0.57;;
11984;SDS011;6052;53.246;10.368;2022-10-17T15:32:10;0.63;;;0.55;;
11984;SDS011;6052;53.246;10.368;2022-10-17T15:34:38;0.95;;;0.60;;
11984;SDS011;6052;53.246;10.368;2022-10-17T15:37:12;0.75;;;0.68;;
11984;SDS011;6052;53.246;10.368;2022-10-17T15:39:43;0.80;;;0.70;;